createdAt,value
2022-10-01T00:02:21.965Z,99980.00
2022-10-01T00:04:54.662Z,99975.00
2022-10-01T00:07:22.972Z,99966.13
2022-10-01T00:09:51.947Z,99968.31
2022-10-01T00:12:19.846Z,99967.50
2022-10-01T00:14:47.741Z,99964.66
2022-10-01T00:17:15.404Z,99955.50
2022-10-01T00:19:43.063Z,99950.84
2022-10-01T00:22:10.759Z,99946.34
2022-10-01T00:24:38.497Z,99951.53
2022-10-01T00:27:07.837Z,99945.03
2022-10-01T00:29:36.435Z,99944.38
2022-10-01T00:32:04.144Z,99946.03
2022-10-01T00:34:31.817Z,99936.69
2022-10-01T00:36:59.501Z,99939.19
2022-10-01T00:39:27.132Z,99937.19
2022-10-01T00:41:54.806Z,99927.19
2022-10-01T00:44:33.136Z,99925.38
2022-10-01T00:47:07.063Z,99925.38
2022-10-01T00:49:38.543Z,99926.38
2022-10-01T00:52:10.379Z,99918.38
2022-10-01T00:54:43.583Z,99912.88
2022-10-01T00:57:15.112Z,99911.88
2022-10-01T00:59:44.416Z,99906.72
2022-10-01T01:02:12.381Z,99902.03
2022-10-01T01:04:41.204Z,99902.72
2022-10-01T01:07:09.970Z,99903.53
2022-10-01T01:09:40.840Z,99900.34
2022-10-01T01:12:16.863Z,99908.53
2022-10-01T01:14:52.733Z,99899.53
2022-10-01T01:17:25.459Z,99902.19
2022-10-01T01:20:09.427Z,99907.19
2022-10-01T01:22:43.947Z,99894.69
2022-10-01T01:25:19.689Z,99899.03
2022-10-01T01:28:00.414Z,99888.53
2022-10-01T01:30:28.999Z,99890.38
2022-10-01T01:33:02.311Z,99884.34
2022-10-01T01:35:35.268Z,99875.53
2022-10-01T01:38:08.316Z,99880.19
2022-10-01T01:40:38.966Z,99868.69
2022-10-01T01:43:12.111Z,99859.38
2022-10-01T01:45:40.993Z,99854.38
2022-10-01T01:48:09.828Z,99844.03
2022-10-01T01:50:46.224Z,99840.38
2022-10-01T01:53:15.095Z,99835.06
2022-10-01T01:55:44.211Z,99829.56
2022-10-01T01:58:13.500Z,99826.38
2022-10-01T02:00:41.225Z,99814.75
2022-10-01T02:03:09.095Z,99821.38
2022-10-01T02:05:45.679Z,99805.75
2022-10-01T02:08:36.836Z,99798.56
2022-10-01T02:11:17.517Z,99792.72
2022-10-01T02:13:55.338Z,99796.22
2022-10-01T02:16:28.636Z,99791.22
2022-10-01T02:19:01.484Z,99782.41
2022-10-01T02:21:33.974Z,99780.91
2022-10-01T02:24:08.562Z,99785.22
2022-10-01T02:26:38.957Z,99768.09
2022-10-01T02:29:11.279Z,99764.75
2022-10-01T02:31:41.103Z,99771.41
2022-10-01T02:34:12.592Z,99761.41
2022-10-01T02:36:42.467Z,99762.22
2022-10-01T02:39:12.092Z,99751.75
2022-10-01T02:41:39.921Z,99748.75
2022-10-01T02:44:13.456Z,99742.91
2022-10-01T02:46:46.768Z,99748.22
2022-10-01T02:49:14.987Z,99741.25
2022-10-01T02:51:53.294Z,99738.09
2022-10-01T02:54:26.766Z,99734.09
2022-10-01T02:57:12.162Z,99729.44
2022-10-01T02:59:41.043Z,99716.78
2022-10-01T03:02:08.839Z,99711.81
2022-10-01T03:04:36.560Z,99697.66
2022-10-01T03:07:04.460Z,99693.81
2022-10-01T03:09:32.514Z,99678.53
2022-10-01T03:12:00.933Z,99662.03
2022-10-01T03:14:28.882Z,99645.09
2022-10-01T03:16:58.079Z,99637.59
2022-10-01T03:19:25.644Z,99618.47
2022-10-01T03:21:53.220Z,99610.31
2022-10-01T03:24:20.749Z,99586.88
2022-10-01T03:26:49.017Z,99574.41
2022-10-01T03:29:16.545Z,99578.41
2022-10-01T03:31:44.329Z,99577.88
2022-10-01T03:34:13.535Z,99597.50
2022-10-01T03:36:41.124Z,99619.63
2022-10-01T03:39:08.892Z,99622.28
2022-10-01T03:41:37.100Z,99621.63
2022-10-01T03:44:04.767Z,99620.94
2022-10-01T03:46:32.720Z,99614.31
2022-10-01T03:49:00.856Z,99609.97
2022-10-01T03:51:30.533Z,99609.97
2022-10-01T03:53:58.666Z,99597.50
2022-10-01T03:56:26.934Z,99594.84
2022-10-01T03:58:54.722Z,99592.84
2022-10-01T04:01:22.737Z,99566.75
2022-10-01T04:03:50.900Z,99583.72
2022-10-01T04:06:18.516Z,99579.06
2022-10-01T04:08:47.480Z,99589.03
2022-10-01T04:11:15.182Z,99585.22
2022-10-01T04:13:42.872Z,99583.56
2022-10-01T04:16:10.861Z,99585.22
2022-10-01T04:18:38.527Z,99573.25
2022-10-01T04:21:06.192Z,99575.25
2022-10-01T04:23:34.089Z,99589.22
2022-10-01T04:26:03.289Z,99584.72
2022-10-01T04:28:32.458Z,99579.38
2022-10-01T04:31:14.039Z,99572.41
2022-10-01T04:33:41.947Z,99581.56
2022-10-01T04:36:09.703Z,99575.41
2022-10-01T04:38:37.492Z,99569.28
2022-10-01T04:41:06.753Z,99563.13
2022-10-01T04:43:34.389Z,99569.75
2022-10-01T04:46:02.080Z,99559.47
2022-10-01T04:48:29.606Z,99538.16
2022-10-01T04:50:57.156Z,99540.00
2022-10-01T04:53:24.920Z,99524.69
2022-10-01T04:55:52.801Z,99527.34
2022-10-01T04:58:21.637Z,99544.31
2022-10-01T05:00:49.683Z,99550.81
2022-10-01T05:03:17.291Z,99542.66
2022-10-01T05:05:45.337Z,99534.84
2022-10-01T05:08:12.866Z,99525.84
2022-10-01T05:10:40.528Z,99528.69
2022-10-01T05:13:08.325Z,99526.50
2022-10-01T05:15:37.276Z,99523.03
2022-10-01T05:18:04.827Z,99514.88
2022-10-01T05:20:33.906Z,99528.34
2022-10-01T05:23:01.555Z,99536.31
2022-10-01T05:25:29.171Z,99529.00
2022-10-01T05:28:05.035Z,99532.50
2022-10-01T05:30:33.513Z,99543.81
2022-10-01T05:33:04.154Z,99545.47
2022-10-01T05:35:32.568Z,99534.31
2022-10-01T05:38:02.632Z,99539.81
2022-10-01T05:40:31.164Z,99566.44
2022-10-01T05:43:00.106Z,99557.28
2022-10-01T05:45:28.439Z,99557.09
2022-10-01T05:48:00.340Z,99557.09
2022-10-01T05:50:31.409Z,99564.94
2022-10-01T05:52:59.744Z,99567.06
2022-10-01T05:55:31.834Z,99554.59
2022-10-01T05:58:01.148Z,99558.94
2022-10-01T06:00:30.435Z,99562.06
2022-10-01T06:03:00.492Z,99562.25
2022-10-01T06:05:30.721Z,99564.91
2022-10-01T06:07:58.968Z,99562.75
2022-10-01T06:10:30.065Z,99552.94
2022-10-01T06:13:00.289Z,99560.75
2022-10-01T06:15:27.856Z,99565.72
2022-10-01T06:17:55.620Z,99566.72
2022-10-01T06:20:24.069Z,99567.72
2022-10-01T06:22:57.461Z,99563.88
2022-10-01T06:25:25.611Z,99569.88
2022-10-01T06:27:57.759Z,99564.38
2022-10-01T06:30:27.198Z,99574.22
2022-10-01T06:32:55.100Z,99571.22
2022-10-01T06:35:22.679Z,99572.06
2022-10-01T06:37:50.476Z,99570.88
2022-10-01T06:40:19.376Z,99570.69
2022-10-01T06:42:51.742Z,99578.69
2022-10-01T06:45:21.320Z,99578.53
2022-10-01T06:47:54.401Z,99576.34
2022-10-01T06:50:22.036Z,99580.66
2022-10-01T06:52:52.718Z,99570.00
2022-10-01T06:55:23.403Z,99572.53
2022-10-01T06:57:55.272Z,99579.34
2022-10-01T07:00:23.676Z,99582.00
2022-10-01T07:02:51.507Z,99584.47
2022-10-01T07:05:19.271Z,99576.34
2022-10-01T07:07:48.267Z,99587.47
2022-10-01T07:10:17.170Z,99595.13
2022-10-01T07:12:48.844Z,99580.63
2022-10-01T07:15:18.355Z,99593.78
2022-10-01T07:17:48.391Z,99604.09
2022-10-01T07:20:17.643Z,99600.44
2022-10-01T07:22:45.686Z,99600.09
2022-10-01T07:25:14.154Z,99606.06
2022-10-01T07:27:42.161Z,99605.25
2022-10-01T07:30:12.169Z,99603.41
2022-10-01T07:32:39.787Z,99598.56
2022-10-01T07:35:08.944Z,99613.22
2022-10-01T07:37:36.522Z,99610.53
2022-10-01T07:40:07.400Z,99611.38
2022-10-01T07:42:35.702Z,99622.53
2022-10-01T07:45:06.523Z,99621.53
2022-10-01T07:47:35.531Z,99630.16
2022-10-01T07:50:03.192Z,99634.38
2022-10-01T07:52:30.844Z,99627.22
2022-10-01T07:54:58.406Z,99626.00
2022-10-01T07:57:25.976Z,99627.53
2022-10-01T07:59:55.877Z,99630.84
2022-10-01T08:02:23.861Z,99633.19
2022-10-01T08:05:10.286Z,99632.81
2022-10-01T08:07:38.054Z,99622.81
2022-10-01T08:10:06.519Z,99627.47
2022-10-01T08:12:34.099Z,99623.66
2022-10-01T08:15:02.287Z,99628.63
2022-10-01T08:17:29.877Z,99626.28
2022-10-01T08:19:58.857Z,99631.44
2022-10-01T08:22:26.391Z,99630.91
2022-10-01T08:24:54.548Z,99629.72
2022-10-01T08:27:25.028Z,99630.72
2022-10-01T08:29:53.408Z,99630.19
2022-10-01T08:32:21.759Z,99641.97
2022-10-01T08:34:53.307Z,99642.97
2022-10-01T08:37:29.604Z,99636.44
2022-10-01T08:39:57.814Z,99638.22
2022-10-01T08:42:38.528Z,99638.53
2022-10-01T08:45:12.376Z,99641.84
2022-10-01T08:47:43.664Z,99642.00
2022-10-01T08:50:19.904Z,99642.13
2022-10-01T08:52:54.799Z,99648.03
2022-10-01T08:55:26.867Z,99651.00
2022-10-01T08:57:55.814Z,99660.81
2022-10-01T09:00:23.720Z,99662.28
2022-10-01T09:02:52.780Z,99661.91
2022-10-01T09:05:26.106Z,99667.56
2022-10-01T09:08:06.169Z,99672.75
2022-10-01T09:10:44.772Z,99674.22
2022-10-01T09:13:40.427Z,99682.97
2022-10-01T09:16:16.351Z,99685.63
2022-10-01T09:18:56.410Z,99693.75
2022-10-01T09:21:29.095Z,99691.19
2022-10-01T09:24:04.373Z,99708.16
2022-10-01T09:26:32.222Z,99707.28
2022-10-01T09:29:03.066Z,99709.22
2022-10-01T09:31:38.616Z,99708.03
2022-10-01T09:34:14.319Z,99705.63
2022-10-01T09:36:49.031Z,99701.22
2022-10-01T09:39:24.207Z,99704.00
2022-10-01T09:41:52.185Z,99704.56
2022-10-01T09:44:27.667Z,99705.88
2022-10-01T09:46:56.192Z,99710.63
2022-10-01T09:49:30.952Z,99705.56
2022-10-01T09:52:03.732Z,99701.16
2022-10-01T09:54:40.253Z,99705.94
2022-10-01T09:57:11.828Z,99699.31
2022-10-01T09:59:46.515Z,99714.44
2022-10-01T10:02:20.616Z,99709.16
2022-10-01T10:04:48.627Z,99711.97
2022-10-01T10:07:19.689Z,99718.44
2022-10-01T10:09:48.707Z,99721.19
2022-10-01T10:12:30.315Z,99733.16
2022-10-01T10:14:58.927Z,99720.03
2022-10-01T10:17:26.752Z,99721.97
2022-10-01T10:19:55.092Z,99721.88
2022-10-01T10:22:25.931Z,99725.88
2022-10-01T10:24:57.820Z,99724.69
2022-10-01T10:27:27.399Z,99737.44
2022-10-01T10:30:08.540Z,99726.34
2022-10-01T10:32:36.510Z,99732.16
2022-10-01T10:35:10.538Z,99734.66
2022-10-01T10:37:45.421Z,99729.16
2022-10-01T10:40:20.018Z,99730.66
2022-10-01T10:42:49.892Z,99733.59
2022-10-01T10:45:20.996Z,99727.63
2022-10-01T10:47:52.419Z,99730.38
2022-10-01T10:50:30.770Z,99737.41
2022-10-01T10:52:59.047Z,99737.84
2022-10-01T10:55:30.965Z,99753.34
2022-10-01T10:58:11.844Z,99754.66
2022-10-01T11:00:47.588Z,99752.53
2022-10-01T11:03:17.810Z,99754.59
2022-10-01T11:05:45.496Z,99755.41
2022-10-01T11:08:19.532Z,99767.13
2022-10-01T11:11:00.534Z,99765.66
2022-10-01T11:13:42.735Z,99761.69
2022-10-01T11:16:32.057Z,99773.19
2022-10-01T11:19:15.021Z,99776.63
2022-10-01T11:21:57.033Z,99784.66
2022-10-01T11:24:40.496Z,99778.66
2022-10-01T11:27:14.722Z,99797.63
2022-10-01T11:29:51.524Z,99800.47
2022-10-01T11:32:29.270Z,99796.97
2022-10-01T11:35:18.584Z,99795.31
2022-10-01T11:38:01.745Z,99794.69
2022-10-01T11:40:36.588Z,99799.22
2022-10-01T11:43:12.558Z,99797.91
2022-10-01T11:45:44.792Z,99796.44
2022-10-01T11:48:24.371Z,99794.75
2022-10-01T11:50:56.321Z,99788.59
2022-10-01T11:53:30.710Z,99801.63
2022-10-01T11:56:19.568Z,99806.16
2022-10-01T11:58:54.454Z,99804.94
2022-10-01T12:01:34.447Z,99804.94
2022-10-01T12:04:07.672Z,99808.06
2022-10-01T12:06:40.754Z,99808.50
2022-10-01T12:09:14.036Z,99809.34
2022-10-01T12:11:47.159Z,99809.53
2022-10-01T12:14:20.799Z,99806.41
2022-10-01T12:16:55.247Z,99809.47
2022-10-01T12:19:27.058Z,99809.47
2022-10-01T12:22:00.560Z,99806.78
2022-10-01T12:24:31.370Z,99815.44
2022-10-01T12:27:10.241Z,99823.47
2022-10-01T12:29:47.131Z,99818.31
2022-10-01T12:32:23.937Z,99826.34
2022-10-01T12:34:59.810Z,99833.38
2022-10-01T12:37:40.296Z,99824.34
2022-10-01T12:40:22.178Z,99837.06
2022-10-01T12:43:20.632Z,99838.56
2022-10-01T12:45:57.161Z,99852.38
2022-10-01T12:48:32.053Z,99856.91
2022-10-01T12:51:16.481Z,99853.88
2022-10-01T12:53:47.277Z,99863.19
2022-10-01T12:56:27.555Z,99861.72
2022-10-01T12:59:11.861Z,99853.88
2022-10-01T13:01:59.735Z,99855.53
2022-10-01T13:04:40.271Z,99862.75
2022-10-01T13:07:21.958Z,99844.00
2022-10-01T13:10:00.285Z,99838.09
2022-10-01T13:12:44.948Z,99855.06
2022-10-01T13:15:15.125Z,99865.34
2022-10-01T13:17:49.941Z,99865.34
2022-10-01T13:20:29.001Z,99863.84
2022-10-01T13:23:05.264Z,99859.91
2022-10-01T13:25:41.791Z,99858.88
2022-10-01T13:28:17.445Z,99859.72
2022-10-01T13:30:59.051Z,99863.31
2022-10-01T13:33:29.730Z,99870.41
2022-10-01T13:35:59.369Z,99866.22
2022-10-01T13:38:40.132Z,99876.44
2022-10-01T13:41:18.567Z,99879.03
2022-10-01T13:43:57.082Z,99876.69
2022-10-01T13:46:27.527Z,99878.44
2022-10-01T13:48:57.133Z,99888.66
2022-10-01T13:51:35.251Z,99900.75
2022-10-01T13:54:04.637Z,99894.78
2022-10-01T13:56:35.057Z,99900.81
2022-10-01T13:59:03.698Z,99904.25
2022-10-01T14:01:40.699Z,99902.34
2022-10-01T14:04:20.995Z,99904.56
2022-10-01T14:06:53.655Z,99908.69
2022-10-01T14:09:24.099Z,99923.97
2022-10-01T14:12:14.694Z,99938.03
2022-10-01T14:15:07.463Z,99936.13
2022-10-01T14:17:36.431Z,99942.47
2022-10-01T14:20:06.872Z,99944.34
2022-10-01T14:22:48.253Z,99947.59
2022-10-01T14:25:29.711Z,99959.78
2022-10-01T14:28:25.394Z,99960.53
2022-10-01T14:30:59.523Z,99965.81
2022-10-01T14:33:53.144Z,99975.78
2022-10-01T14:36:29.406Z,99976.66
2022-10-01T14:39:05.971Z,99988.09
2022-10-01T14:41:35.655Z,99992.56
2022-10-01T14:44:03.312Z,99990.13
2022-10-01T14:46:31.044Z,99999.53
2022-10-01T14:48:59.891Z,100005.28
2022-10-01T14:51:31.708Z,99993.09
2022-10-01T14:54:01.435Z,99984.59
2022-10-01T14:56:29.820Z,99995.22
2022-10-01T14:59:02.674Z,99997.59
2022-10-01T15:01:30.363Z,100001.94
2022-10-01T15:03:58.086Z,100001.94
2022-10-01T15:06:29.723Z,100010.25
2022-10-01T15:09:14.269Z,100023.41
2022-10-01T15:11:44.595Z,100015.13
2022-10-01T15:14:18.587Z,100020.16
2022-10-01T15:16:46.407Z,100029.75
2022-10-01T15:19:16.622Z,100027.59
2022-10-01T15:21:49.867Z,100028.44
2022-10-01T15:24:25.763Z,100050.03
2022-10-01T15:26:55.388Z,100057.59
2022-10-01T15:29:23.420Z,100053.06
2022-10-01T15:31:53.037Z,100059.16
2022-10-01T15:34:23.620Z,100068.03
2022-10-01T15:36:51.991Z,100060.84
2022-10-01T15:39:30.205Z,100069.31
2022-10-01T15:41:58.915Z,100068.31
2022-10-01T15:44:46.265Z,100076.81
2022-10-01T15:47:28.016Z,100078.44
2022-10-01T15:50:07.173Z,100078.88
2022-10-01T15:52:51.809Z,100084.25
2022-10-01T15:55:24.700Z,100091.25
2022-10-01T15:58:00.388Z,100092.75
2022-10-01T16:00:30.433Z,100094.63
2022-10-01T16:02:59.147Z,100099.06
2022-10-01T16:05:32.315Z,100107.09
2022-10-01T16:08:00.524Z,100108.13
2022-10-01T16:10:36.772Z,100109.47
2022-10-01T16:13:30.103Z,100118.53
2022-10-01T16:16:09.326Z,100119.38
2022-10-01T16:18:38.307Z,100134.31
2022-10-01T16:21:09.048Z,100133.81
2022-10-01T16:23:37.833Z,100137.53
2022-10-01T16:26:32.178Z,100142.94
2022-10-01T16:29:02.444Z,100154.38
2022-10-01T16:31:30.950Z,100167.28
2022-10-01T16:33:58.671Z,100157.13
2022-10-01T16:36:26.321Z,100165.81
2022-10-01T16:38:54.087Z,100170.72
2022-10-01T16:41:26.052Z,100174.09
2022-10-01T16:43:54.862Z,100185.00
2022-10-01T16:46:22.807Z,100195.88
2022-10-01T16:48:52.310Z,100203.59
2022-10-01T16:51:20.446Z,100211.16
2022-10-01T16:53:48.257Z,100212.31
2022-10-01T16:56:15.875Z,100219.84
2022-10-01T16:58:45.190Z,100226.19
2022-10-01T17:01:15.061Z,100231.06
2022-10-01T17:03:43.133Z,100235.59
2022-10-01T17:06:10.783Z,100246.31
2022-10-01T17:08:38.340Z,100246.63
2022-10-01T17:11:09.543Z,100254.16
2022-10-01T17:13:39.634Z,100261.53
2022-10-01T17:16:09.811Z,100262.03
2022-10-01T17:18:37.410Z,100261.19
2022-10-01T17:21:05.745Z,100268.75
2022-10-01T17:23:34.820Z,100268.25
2022-10-01T17:26:03.353Z,100271.09
2022-10-01T17:28:31.252Z,100280.28
2022-10-01T17:30:58.926Z,100283.97
2022-10-01T17:33:28.267Z,100286.63
2022-10-01T17:35:56.045Z,100291.97
2022-10-01T17:38:24.271Z,100298.84
2022-10-01T17:40:56.394Z,100307.22
2022-10-01T17:43:24.567Z,100301.34
2022-10-01T17:45:56.672Z,100300.88
2022-10-01T17:48:24.548Z,100311.06
2022-10-01T17:51:01.615Z,100312.56
2022-10-01T17:53:34.204Z,100322.75
2022-10-01T17:56:06.782Z,100339.31
2022-10-01T17:58:34.315Z,100346.63
2022-10-01T18:01:01.967Z,100353.47
2022-10-01T18:03:29.633Z,100358.31
2022-10-01T18:06:03.478Z,100361.50
2022-10-01T18:08:51.154Z,100360.13
2022-10-01T18:11:20.236Z,100372.31
2022-10-01T18:13:48.332Z,100376.16
2022-10-01T18:16:19.035Z,100384.81
2022-10-01T18:21:37.094Z,100392.28
2022-10-01T18:24:05.192Z,100387.41
2022-10-01T18:26:33.231Z,100402.06
2022-10-01T18:29:01.203Z,100403.56
2022-10-01T18:31:37.051Z,100406.72
2022-10-01T18:34:12.389Z,100420.53
2022-10-01T18:36:50.555Z,100419.19
2022-10-01T18:39:24.666Z,100425.00
2022-10-01T18:41:52.543Z,100422.13
2022-10-01T18:44:21.592Z,100433.44
2022-10-01T18:47:12.634Z,100432.09
2022-10-01T18:49:57.595Z,100438.91
2022-10-01T18:52:43.864Z,100444.69
2022-10-01T18:55:30.429Z,100439.00
2022-10-01T18:58:19.182Z,100450.13
2022-10-01T19:00:55.138Z,100452.41
2022-10-01T19:03:54.787Z,100457.06
2022-10-01T19:06:41.763Z,100454.03
2022-10-01T19:09:26.596Z,100460.69
2022-10-01T19:12:04.203Z,100464.81
2022-10-01T19:15:00.388Z,100469.44
2022-10-01T19:17:48.512Z,100469.91
2022-10-01T19:20:27.014Z,100471.06
2022-10-01T19:23:07.685Z,100473.19
2022-10-01T19:25:41.916Z,100476.31
2022-10-01T19:28:23.828Z,100473.78
2022-10-01T19:31:02.992Z,100483.78
2022-10-01T19:33:33.292Z,100494.59
2022-10-01T19:36:02.123Z,100502.88
2022-10-01T19:38:35.515Z,100504.88
2022-10-01T19:41:12.903Z,100504.19
2022-10-01T19:43:47.236Z,100508.81
2022-10-01T19:46:22.204Z,100508.31
2022-10-01T19:48:54.737Z,100511.09
2022-10-01T19:51:25.725Z,100518.25
2022-10-01T19:54:00.793Z,100526.41
2022-10-01T19:56:31.380Z,100531.91
2022-10-01T19:59:03.070Z,100532.06
2022-10-01T20:01:38.408Z,100543.56
2022-10-01T20:04:15.928Z,100542.72
2022-10-01T20:06:47.153Z,100557.03
2022-10-01T20:09:22.467Z,100555.19
2022-10-01T20:12:00.670Z,100560.69
2022-10-01T20:15:00.243Z,100563.34
2022-10-01T20:17:34.982Z,100560.00
2022-10-01T20:20:16.184Z,100568.13
2022-10-01T20:22:55.067Z,100575.28
2022-10-01T20:25:33.594Z,100571.91
2022-10-01T20:28:11.431Z,100576.56
2022-10-01T20:30:50.692Z,100576.56
2022-10-01T20:33:29.687Z,100578.38
2022-10-01T20:36:05.296Z,100584.53
2022-10-01T20:38:39.326Z,100582.03
2022-10-01T20:41:14.272Z,100583.72
2022-10-01T20:43:49.105Z,100580.88
2022-10-01T20:46:24.913Z,100585.38
2022-10-01T20:48:59.237Z,100581.72
2022-10-01T20:51:35.884Z,100600.09
2022-10-01T20:54:10.447Z,100597.44
2022-10-01T20:56:42.652Z,100605.16
2022-10-01T20:59:17.997Z,100653.81
2022-10-01T21:01:59.143Z,100656.03
2022-10-01T21:04:31.890Z,100670.63
2022-10-01T21:07:08.718Z,100673.13
2022-10-01T21:09:42.336Z,100663.69
2022-10-01T21:12:16.460Z,100657.41
2022-10-01T21:14:50.660Z,100653.59
2022-10-01T21:17:32.960Z,100649.09
2022-10-01T21:20:06.024Z,100652.44
2022-10-01T21:22:51.317Z,100651.59
2022-10-01T21:25:29.703Z,100658.78
2022-10-01T21:28:10.287Z,100665.94
2022-10-01T21:30:56.939Z,100660.75
2022-10-01T21:33:26.939Z,100657.41
2022-10-01T21:35:59.723Z,100652.34
2022-10-01T21:38:31.948Z,100654.19
2022-10-01T21:41:29.346Z,100658.84
2022-10-01T21:44:17.120Z,100655.63
2022-10-01T21:46:54.820Z,100658.59
2022-10-01T21:49:34.161Z,100658.88
2022-10-01T21:52:12.022Z,100647.66
2022-10-01T21:55:06.787Z,100652.28
2022-10-01T21:58:02.537Z,100653.53
2022-10-01T22:00:32.324Z,100645.16
2022-10-01T22:03:18.992Z,100656.78
2022-10-01T22:05:54.754Z,100659.03
2022-10-01T22:08:32.661Z,100663.69
2022-10-01T22:11:03.597Z,100660.50
2022-10-01T22:13:35.293Z,100666.78
2022-10-01T22:16:07.590Z,100666.25
2022-10-01T22:18:41.947Z,100670.03
2022-10-01T22:21:12.977Z,100669.34
2022-10-01T22:23:45.738Z,100674.81
2022-10-01T22:26:17.994Z,100676.91
2022-10-01T22:28:51.124Z,100679.03
2022-10-01T22:31:24.595Z,100680.00
2022-10-01T22:33:59.360Z,100682.81
2022-10-01T22:36:34.663Z,100679.47
2022-10-01T22:39:06.059Z,100684.91
2022-10-01T22:41:39.135Z,100674.56
2022-10-01T22:44:14.409Z,100680.03
2022-10-01T22:47:07.974Z,100677.66
2022-10-01T22:49:48.859Z,100679.63
2022-10-01T22:52:27.026Z,100683.38
2022-10-01T22:55:09.368Z,100686.34
2022-10-01T22:58:01.335Z,100688.31
2022-10-01T23:00:29.230Z,100696.59
2022-10-01T23:03:08.221Z,100695.91
2022-10-01T23:05:49.670Z,100705.00
2022-10-01T23:08:24.937Z,100697.16
2022-10-01T23:11:04.638Z,100703.59
2022-10-01T23:13:43.277Z,100709.88
2022-10-01T23:16:17.821Z,100706.69
2022-10-01T23:18:57.988Z,100705.00
2022-10-01T23:21:38.458Z,100704.16
2022-10-01T23:24:19.788Z,100703.59
2022-10-01T23:26:56.652Z,100701.09
2022-10-01T23:29:46.272Z,100705.56
2022-10-01T23:32:26.813Z,100712.00
2022-10-01T23:35:02.023Z,100716.63
2022-10-01T23:37:53.340Z,100715.78
2022-10-01T23:40:23.559Z,100718.56
2022-10-01T23:42:59.392Z,100719.56
2022-10-01T23:45:33.408Z,100722.34
2022-10-01T23:48:05.768Z,100718.16
2022-10-01T23:50:38.556Z,100733.41
2022-10-01T23:53:15.682Z,100740.56
2022-10-01T23:56:06.259Z,100736.38
2022-10-01T23:58:43.456Z,100737.47
